createdAt,value
2022-09-12T00:01:19.559Z,2.00
2022-09-12T00:03:46.883Z,1.88
2022-09-12T00:06:22.557Z,2.08
2022-09-12T00:08:50.818Z,1.85
2022-09-12T00:11:17.226Z,1.80
2022-09-12T00:13:43.801Z,2.03
2022-09-12T00:16:22.817Z,1.73
2022-09-12T00:18:49.837Z,2.00
2022-09-12T00:21:18.019Z,1.60
2022-09-12T00:26:11.222Z,1.80
2022-09-12T00:28:39.930Z,1.77
2022-09-12T00:31:12.136Z,2.97
2022-09-12T00:33:38.886Z,1.80
2022-09-12T00:36:11.562Z,2.03
2022-09-12T00:38:41.800Z,1.50
2022-09-12T00:41:18.376Z,1.83
2022-09-12T00:43:51.361Z,2.00
2022-09-12T00:46:36.144Z,1.52
2022-09-12T00:49:13.602Z,1.52
2022-09-12T00:51:44.076Z,1.38
2022-09-12T00:54:18.645Z,1.55
2022-09-12T00:59:27.598Z,1.90
2022-09-12T01:01:54.842Z,1.40
2022-09-12T01:04:23.330Z,1.92
2022-09-12T01:06:50.958Z,1.70
2022-09-12T01:09:21.281Z,1.65
2022-09-12T01:11:48.995Z,1.73
2022-09-12T01:14:16.871Z,1.70
2022-09-12T01:16:43.768Z,1.63
2022-09-12T01:19:31.936Z,1.70
2022-09-12T01:22:10.548Z,1.52
2022-09-12T01:24:54.617Z,1.60
2022-09-12T01:27:30.012Z,1.70
2022-09-12T01:30:24.438Z,1.40
2022-09-12T01:33:21.754Z,1.50
2022-09-12T01:36:15.512Z,1.58
2022-09-12T01:41:25.866Z,1.30
2022-09-12T01:46:50.999Z,1.60
2022-09-12T01:49:40.739Z,1.25
2022-09-12T01:52:16.612Z,1.45
2022-09-12T01:55:20.729Z,2.05
2022-09-12T01:57:53.327Z,1.70
2022-09-12T02:00:20.146Z,1.48
2022-09-12T02:02:52.925Z,1.80
2022-09-12T02:05:32.502Z,1.40
2022-09-12T02:08:08.042Z,1.70
2022-09-12T02:10:43.575Z,1.83
2022-09-12T02:13:15.754Z,2.05
2022-09-12T02:15:49.793Z,1.50
2022-09-12T02:18:18.427Z,1.85
2022-09-12T02:20:48.844Z,1.98
2022-09-12T02:23:29.149Z,1.52
2022-09-12T02:26:00.789Z,1.60
2022-09-12T02:28:40.355Z,1.67
2022-09-12T02:31:17.347Z,1.25
2022-09-12T02:33:49.953Z,1.70
2022-09-12T02:36:40.162Z,1.80
2022-09-12T02:39:06.854Z,1.40
2022-09-12T02:41:33.457Z,1.70
2022-09-12T02:44:00.457Z,1.50
2022-09-12T02:46:34.372Z,1.60
2022-09-12T02:49:00.833Z,1.60
2022-09-12T02:51:27.408Z,1.50
2022-09-12T02:53:53.985Z,1.38
2022-09-12T02:56:29.477Z,1.60
2022-09-12T02:59:01.797Z,1.60
2022-09-12T03:01:56.697Z,1.52
2022-09-12T03:04:41.452Z,1.55
2022-09-12T03:07:29.094Z,1.52
2022-09-12T03:10:01.440Z,1.42
2022-09-12T03:12:36.565Z,1.45
2022-09-12T03:16:00.261Z,1.75
2022-09-12T03:18:44.041Z,1.52
2022-09-12T03:21:29.598Z,1.70
2022-09-12T03:24:04.729Z,1.60
2022-09-12T03:26:40.403Z,1.90
2022-09-12T03:29:08.374Z,1.50
2022-09-12T03:31:34.861Z,1.50
2022-09-12T03:34:01.299Z,1.75
2022-09-12T03:36:29.807Z,1.60
2022-09-12T03:38:56.817Z,1.88
2022-09-12T03:41:23.319Z,1.30
2022-09-12T03:43:49.745Z,1.58
2022-09-12T03:46:16.199Z,2.15
2022-09-12T03:48:42.893Z,1.55
2022-09-12T03:51:11.001Z,1.30
2022-09-12T03:53:37.566Z,1.52
2022-09-12T03:56:09.012Z,1.77
2022-09-12T03:58:36.410Z,1.35
2022-09-12T04:01:17.911Z,2.00
2022-09-12T04:03:46.896Z,1.58
2022-09-12T04:06:16.181Z,2.13
2022-09-12T04:08:43.701Z,1.85
2022-09-12T04:11:12.749Z,1.70
2022-09-12T04:13:40.653Z,1.77
2022-09-12T04:16:07.633Z,1.85
2022-09-12T04:18:34.723Z,1.88
2022-09-12T04:21:06.928Z,1.27
2022-09-12T04:23:33.923Z,1.60
2022-09-12T04:26:02.631Z,1.70
2022-09-12T04:28:29.705Z,1.70
2022-09-12T04:31:01.003Z,1.83
2022-09-12T04:33:27.434Z,1.83
2022-09-12T04:35:53.849Z,1.88
2022-09-12T04:38:20.362Z,1.70
2022-09-12T04:40:47.650Z,1.67
2022-09-12T04:43:14.751Z,2.00
2022-09-12T04:45:41.490Z,1.80
2022-09-12T04:48:07.950Z,1.90
2022-09-12T04:50:34.336Z,1.88
2022-09-12T04:53:00.825Z,1.85
2022-09-12T04:55:27.401Z,1.58
2022-09-12T04:57:53.836Z,1.50
2022-09-12T05:00:20.564Z,1.83
2022-09-12T05:02:47.166Z,1.70
2022-09-12T05:05:13.799Z,1.50
2022-09-12T05:07:40.569Z,2.10
2022-09-12T05:10:07.673Z,1.60
2022-09-12T05:12:34.228Z,1.42
2022-09-12T05:15:00.712Z,1.67
2022-09-12T05:17:29.610Z,1.80
2022-09-12T05:19:56.131Z,1.60
2022-09-12T05:22:23.030Z,1.67
2022-09-12T05:24:50.786Z,1.90
2022-09-12T05:27:17.389Z,1.80
2022-09-12T05:29:43.786Z,1.90
2022-09-12T05:32:10.255Z,1.50
2022-09-12T05:34:37.878Z,1.42
2022-09-12T05:37:04.422Z,1.67
2022-09-12T05:39:30.796Z,2.17
2022-09-12T05:41:57.231Z,1.95
2022-09-12T05:44:23.652Z,1.90
2022-09-12T05:48:19.626Z,2.65
2022-09-12T05:50:46.247Z,2.20
2022-09-12T05:53:12.558Z,3.13
2022-09-12T05:55:38.884Z,2.42
2022-09-12T05:58:05.305Z,2.58
2022-09-12T06:00:33.563Z,2.97
2022-09-12T06:05:26.377Z,2.25
2022-09-12T06:07:52.654Z,2.53
2022-09-12T06:10:19.076Z,2.70
2022-09-12T06:12:45.791Z,2.60
2022-09-12T06:15:12.213Z,2.38
2022-09-12T06:17:38.535Z,2.50
2022-09-12T06:20:05.077Z,2.90
2022-09-12T06:22:31.603Z,2.15
2022-09-12T06:24:58.234Z,2.50
2022-09-12T06:27:24.586Z,2.25
2022-09-12T06:30:14.725Z,2.58
2022-09-12T06:32:41.091Z,3.28
2022-09-12T06:35:07.646Z,2.45
2022-09-12T06:37:33.963Z,2.65
2022-09-12T06:40:01.946Z,2.92
2022-09-12T06:48:26.022Z,1.80
2022-09-12T07:02:06.399Z,1.15
2022-09-12T07:04:35.743Z,1.05
2022-09-12T07:07:02.213Z,1.15
2022-09-12T07:09:30.705Z,1.15
2022-09-12T07:11:57.148Z,1.23
2022-09-12T07:14:23.603Z,1.42
2022-09-12T07:16:50.095Z,1.48
2022-09-12T07:19:16.557Z,1.13
2022-09-12T07:21:43.028Z,1.67
2022-09-12T07:24:10.718Z,1.20
2022-09-12T07:26:38.513Z,1.63
2022-09-12T07:29:25.549Z,1.70
2022-09-12T07:31:51.708Z,1.17
2022-09-12T07:34:18.105Z,1.58
2022-09-12T07:36:44.574Z,1.27
2022-09-12T07:39:11.095Z,1.80
2022-09-12T07:41:37.586Z,1.65
2022-09-12T07:44:06.614Z,1.58
2022-09-12T07:46:33.498Z,1.42
2022-09-12T07:49:00.948Z,2.28
2022-09-12T07:51:29.728Z,2.03
2022-09-12T07:53:56.683Z,1.65
2022-09-12T07:56:28.815Z,1.92
2022-09-12T07:58:56.888Z,2.53
2022-09-12T08:01:23.553Z,2.35
2022-09-12T08:03:54.036Z,2.35
2022-09-12T08:06:24.108Z,2.78
2022-09-12T08:08:51.989Z,2.90
2022-09-12T08:11:20.549Z,2.70
2022-09-12T08:13:51.702Z,2.28
2022-09-12T08:16:22.437Z,2.65
2022-09-12T08:18:49.737Z,2.65
2022-09-12T08:21:18.829Z,3.08
2022-09-12T08:23:46.022Z,3.55
2022-09-12T08:26:13.719Z,2.85
2022-09-12T08:28:45.497Z,3.35
2022-09-12T08:31:14.570Z,3.03
2022-09-12T08:33:41.141Z,3.45
2022-09-12T08:36:29.632Z,3.58
2022-09-12T08:39:01.338Z,3.05
2022-09-12T08:41:46.208Z,4.35
2022-09-12T08:44:24.479Z,3.35
2022-09-12T08:47:15.850Z,3.95
2022-09-12T08:49:54.495Z,3.53
2022-09-12T08:52:27.144Z,3.88
2022-09-12T08:54:56.394Z,4.30
2022-09-12T08:57:24.291Z,4.15
2022-09-12T08:59:52.945Z,3.92
2022-09-12T09:02:28.678Z,4.30
2022-09-12T09:05:20.216Z,3.97
2022-09-12T09:08:12.769Z,4.47
2022-09-12T09:10:45.287Z,5.00
2022-09-12T09:14:05.735Z,5.05
2022-09-12T09:16:35.242Z,4.28
2022-09-12T09:19:05.603Z,4.20
2022-09-12T09:21:48.471Z,4.90
2022-09-12T09:24:19.467Z,4.28
2022-09-12T09:26:58.014Z,3.90
2022-09-12T09:29:47.824Z,4.45
2022-09-12T09:32:27.687Z,4.30
2022-09-12T09:34:54.289Z,4.93
2022-09-12T09:37:30.690Z,3.90
2022-09-12T09:40:07.105Z,5.28
2022-09-12T09:43:16.341Z,4.90
2022-09-12T09:45:45.891Z,3.97
2022-09-12T09:48:29.556Z,4.50
2022-09-12T09:50:59.050Z,4.07
2022-09-12T09:53:34.258Z,4.30
2022-09-12T09:56:05.565Z,4.07
2022-09-12T09:58:36.552Z,3.88
2022-09-12T10:01:05.976Z,3.58
2022-09-12T10:03:35.715Z,3.80
2022-09-12T10:06:20.731Z,3.90
2022-09-12T10:08:48.628Z,3.53
2022-09-12T10:11:14.993Z,3.03
2022-09-12T10:13:53.121Z,3.42
2022-09-12T10:16:24.777Z,3.65
2022-09-12T10:18:52.846Z,4.38
2022-09-12T10:21:25.289Z,4.28
2022-09-12T10:24:00.155Z,3.45
2022-09-12T10:26:31.569Z,2.90
2022-09-12T10:28:58.241Z,2.55
2022-09-12T10:31:36.095Z,1.95
2022-09-12T10:34:02.744Z,2.63
2022-09-12T10:36:37.973Z,2.83
2022-09-12T10:39:05.400Z,2.58
2022-09-12T10:41:37.729Z,2.15
2022-09-12T10:44:14.217Z,1.77
2022-09-12T10:46:40.653Z,2.28
2022-09-12T10:49:37.909Z,2.42
2022-09-12T10:52:21.662Z,2.20
2022-09-12T10:54:48.119Z,2.08
2022-09-12T10:57:34.498Z,2.60
2022-09-12T11:00:17.454Z,1.40
2022-09-12T11:03:05.442Z,1.42
2022-09-12T11:05:37.890Z,1.30
2022-09-12T11:08:20.721Z,1.65
2022-09-12T11:11:32.321Z,1.70
2022-09-12T11:14:32.728Z,2.17
2022-09-12T11:17:17.064Z,1.90
2022-09-12T11:20:21.634Z,1.48
2022-09-12T11:23:18.128Z,1.55
2022-09-12T11:26:23.340Z,1.50
2022-09-12T11:29:16.247Z,1.75
2022-09-12T11:32:20.972Z,2.15
2022-09-12T11:34:51.084Z,1.30
2022-09-12T11:37:33.076Z,1.40
2022-09-12T11:40:10.791Z,1.30
2022-09-12T11:42:39.720Z,1.73
2022-09-12T11:45:19.339Z,1.63
2022-09-12T11:47:53.066Z,1.33
2022-09-12T11:50:29.722Z,1.70
2022-09-12T11:53:03.219Z,1.55
2022-09-12T11:55:39.233Z,1.50
2022-09-12T11:58:08.805Z,1.50
2022-09-12T12:00:46.062Z,1.85
2022-09-12T12:03:23.649Z,1.83
2022-09-12T12:06:04.550Z,1.85
2022-09-12T12:08:32.330Z,1.67
2022-09-12T12:11:02.069Z,1.80
2022-09-12T12:13:36.886Z,1.70
2022-09-12T12:16:08.354Z,1.42
2022-09-12T12:18:38.890Z,1.75
2022-09-12T12:21:28.393Z,2.00
2022-09-12T12:24:06.988Z,1.90
2022-09-12T12:26:45.401Z,1.67
2022-09-12T12:29:17.982Z,1.70
2022-09-12T12:32:16.532Z,1.95
2022-09-12T12:34:44.582Z,1.83
2022-09-12T12:37:20.186Z,1.63
2022-09-12T12:39:50.347Z,2.60
2022-09-12T12:42:35.141Z,2.03
2022-09-12T12:45:17.790Z,2.00
2022-09-12T12:47:47.589Z,2.10
2022-09-12T12:50:26.175Z,1.77
2022-09-12T12:53:01.903Z,1.48
2022-09-12T12:55:34.115Z,1.50
2022-09-12T12:58:02.052Z,1.30
2022-09-12T13:00:39.977Z,1.50
2022-09-12T13:03:22.445Z,1.80
2022-09-12T13:05:51.669Z,1.48
2022-09-12T13:08:18.004Z,1.67
2022-09-12T13:10:53.544Z,1.65
2022-09-12T13:13:28.062Z,1.83
2022-09-12T13:18:27.725Z,1.98
2022-09-12T13:21:03.378Z,1.52
2022-09-12T13:23:31.581Z,1.65
2022-09-12T13:26:00.569Z,1.20
2022-09-12T13:28:29.354Z,1.30
2022-09-12T13:31:11.939Z,1.83
2022-09-12T13:33:53.338Z,1.80
2022-09-12T13:36:44.656Z,1.38
2022-09-12T13:39:43.690Z,1.30
2022-09-12T13:42:37.588Z,1.17
2022-09-12T13:45:21.154Z,1.48
2022-09-12T13:48:00.657Z,1.30
2022-09-12T13:50:31.830Z,1.10
2022-09-12T13:53:14.054Z,2.00
2022-09-12T13:55:43.223Z,1.63
2022-09-12T13:58:20.851Z,1.33
2022-09-12T14:00:59.517Z,1.30
2022-09-12T14:04:00.226Z,1.42
2022-09-12T14:06:27.659Z,1.25
2022-09-12T14:09:01.341Z,1.30
2022-09-12T14:11:30.293Z,1.35
2022-09-12T14:13:57.771Z,1.85
2022-09-12T14:16:27.068Z,1.85
2022-09-12T14:18:54.200Z,1.40
2022-09-12T14:21:36.345Z,1.60
2022-09-12T14:24:06.712Z,1.50
2022-09-12T14:26:40.165Z,1.35
2022-09-12T14:29:07.993Z,1.70
2022-09-12T14:31:37.602Z,1.60
2022-09-12T14:34:16.538Z,1.40
2022-09-12T14:36:57.170Z,1.45
2022-09-12T14:39:32.802Z,1.52
2022-09-12T14:42:11.111Z,1.52
2022-09-12T14:44:39.071Z,1.50
2022-09-12T14:49:41.258Z,1.42
2022-09-12T14:52:28.600Z,1.20
2022-09-12T14:54:59.483Z,1.48
2022-09-12T14:57:40.172Z,1.27
2022-09-12T15:00:24.583Z,1.45
2022-09-12T15:02:52.762Z,1.52
2022-09-12T15:05:25.266Z,1.35
2022-09-12T15:07:53.801Z,1.67
2022-09-12T15:10:28.267Z,1.45
2022-09-12T15:15:38.403Z,1.65
2022-09-12T15:18:06.720Z,1.55
2022-09-12T15:20:38.882Z,1.40
2022-09-12T15:23:10.454Z,1.30
2022-09-12T15:25:36.808Z,1.50
2022-09-12T15:28:13.286Z,1.38
2022-09-12T15:30:39.794Z,1.38
2022-09-12T15:33:06.173Z,1.40
2022-09-12T15:35:33.546Z,1.65
2022-09-12T15:37:59.918Z,1.13
2022-09-12T15:40:26.550Z,1.38
2022-09-12T15:42:52.977Z,1.30
2022-09-12T15:45:23.291Z,1.45
2022-09-12T15:47:49.727Z,1.38
2022-09-12T15:50:16.607Z,1.48
2022-09-12T15:52:43.170Z,1.50
2022-09-12T15:55:17.827Z,1.30
2022-09-12T15:57:44.533Z,1.75
2022-09-12T16:00:11.893Z,1.63
2022-09-12T16:02:38.520Z,1.90
2022-09-12T16:05:06.333Z,1.98
2022-09-12T16:09:25.262Z,1.70
2022-09-12T16:11:52.285Z,1.30
2022-09-12T16:14:19.523Z,1.80
2022-09-12T16:16:53.831Z,1.50
2022-09-12T16:21:46.758Z,1.20
2022-09-12T16:24:13.192Z,1.52
2022-09-12T16:26:39.639Z,1.55
2022-09-12T16:29:06.049Z,1.45
2022-09-12T16:31:32.507Z,1.20
2022-09-12T16:33:58.890Z,1.52
2022-09-12T16:36:25.277Z,1.20
2022-09-12T16:38:53.829Z,1.83
2022-09-12T16:41:22.826Z,1.05
2022-09-12T16:43:49.263Z,1.50
2022-09-12T16:46:18.866Z,1.52
2022-09-12T16:48:52.495Z,1.60
2022-09-12T16:51:26.479Z,1.63
2022-09-12T16:53:54.579Z,1.45
2022-09-12T16:56:21.510Z,1.52
2022-09-12T16:58:48.554Z,1.40
2022-09-12T17:01:19.622Z,1.13
2022-09-12T17:03:46.140Z,1.50
2022-09-12T17:06:18.245Z,1.35
2022-09-12T17:08:46.931Z,1.48
2022-09-12T17:11:16.722Z,1.35
2022-09-12T17:14:06.943Z,1.20
2022-09-12T17:16:39.294Z,1.08
2022-09-12T17:19:06.918Z,1.30
2022-09-12T17:21:34.030Z,1.00
2022-09-12T17:24:00.594Z,1.35
2022-09-12T17:26:27.972Z,1.30
2022-09-12T17:28:54.391Z,1.73
2022-09-12T17:31:20.976Z,2.97
2022-09-12T17:33:47.830Z,1.85
2022-09-12T17:36:17.562Z,1.83
2022-09-12T17:38:45.615Z,1.45
2022-09-12T17:43:45.941Z,1.42
2022-09-12T17:46:12.867Z,1.40
2022-09-12T17:48:39.381Z,1.38
2022-09-12T17:51:11.270Z,1.67
2022-09-12T17:53:38.063Z,1.40
2022-09-12T17:56:05.423Z,2.25
2022-09-12T17:58:33.199Z,1.35
2022-09-12T18:01:32.684Z,1.83
2022-09-12T18:04:00.937Z,1.50
2022-09-12T18:08:54.600Z,1.75
2022-09-12T18:11:21.012Z,1.40
2022-09-12T18:13:47.593Z,1.70
2022-09-12T18:16:16.371Z,2.25
2022-09-12T18:18:42.826Z,1.85
2022-09-12T18:21:13.234Z,1.85
2022-09-12T18:23:40.250Z,1.63
2022-09-12T18:26:08.868Z,2.00
2022-09-12T18:28:37.467Z,1.50
2022-09-12T18:31:04.919Z,1.88
2022-09-12T18:33:32.056Z,1.80
2022-09-12T18:36:04.026Z,1.50
2022-09-12T18:38:31.038Z,2.10
2022-09-12T18:41:12.395Z,1.25
2022-09-12T18:43:39.525Z,1.80
2022-09-12T18:46:27.112Z,1.55
2022-09-12T18:48:57.935Z,2.10
2022-09-12T18:51:33.520Z,1.70
2022-09-12T18:54:13.124Z,1.40
2022-09-12T18:56:41.300Z,1.40
2022-09-12T19:01:40.080Z,1.80
2022-09-12T19:04:08.138Z,1.77
2022-09-12T19:06:40.183Z,1.67
2022-09-12T19:09:09.101Z,1.23
2022-09-12T19:11:38.076Z,1.60
2022-09-12T19:14:07.688Z,2.00
2022-09-12T19:16:35.252Z,1.88
2022-09-12T19:19:02.689Z,1.80
2022-09-12T19:21:31.012Z,1.90
2022-09-12T19:24:02.941Z,2.30
2022-09-12T19:26:32.500Z,1.73
2022-09-12T19:29:05.866Z,1.85
2022-09-12T19:31:33.059Z,1.83
2022-09-12T19:34:03.727Z,1.88
2022-09-12T19:36:44.858Z,2.72
2022-09-12T19:39:15.167Z,1.95
2022-09-12T19:41:42.911Z,2.05
2022-09-12T19:44:09.605Z,1.85
2022-09-12T19:46:36.270Z,4.68
2022-09-12T19:49:03.819Z,2.38
2022-09-12T19:51:31.254Z,1.92
2022-09-12T19:53:58.894Z,1.90
2022-09-12T19:56:26.453Z,2.10
2022-09-12T19:58:56.574Z,2.30
2022-09-12T20:01:30.048Z,2.65
2022-09-12T20:03:58.076Z,1.98
2022-09-12T20:06:29.716Z,1.75
2022-09-12T20:08:56.735Z,1.63
2022-09-12T20:11:24.549Z,2.35
2022-09-12T20:13:51.887Z,1.90
2022-09-12T20:16:25.825Z,2.35
2022-09-12T20:18:55.517Z,2.20
2022-09-12T20:21:32.390Z,2.42
2022-09-12T20:24:08.761Z,2.30
2022-09-12T20:26:35.674Z,2.45
2022-09-12T20:29:03.303Z,2.13
2022-09-12T20:31:32.479Z,2.58
2022-09-12T20:34:00.734Z,2.22
2022-09-12T20:36:27.548Z,1.70
2022-09-12T20:39:00.195Z,2.72
2022-09-12T20:43:40.255Z,2.30
2022-09-12T20:46:11.018Z,2.17
2022-09-12T20:48:39.625Z,2.40
2022-09-12T20:51:07.183Z,1.92
2022-09-12T20:56:20.863Z,2.15
2022-09-12T20:59:06.985Z,2.05
2022-09-12T21:01:34.910Z,2.35
2022-09-12T21:04:03.471Z,2.20
2022-09-12T21:06:31.713Z,2.00
2022-09-12T21:08:59.768Z,1.83
2022-09-12T21:11:30.917Z,2.45
2022-09-12T21:13:57.958Z,2.15
2022-09-12T21:16:25.841Z,2.33
2022-09-12T21:18:55.200Z,2.50
2022-09-12T21:21:22.538Z,2.00
2022-09-12T21:23:50.725Z,2.05
2022-09-12T21:26:18.397Z,2.53
2022-09-12T21:28:45.081Z,1.95
2022-09-12T21:31:11.748Z,1.90
2022-09-12T21:33:39.452Z,2.10
2022-09-12T21:36:06.517Z,1.77
2022-09-12T21:38:33.195Z,2.05
2022-09-12T21:41:08.533Z,2.03
2022-09-12T21:43:38.122Z,1.70
2022-09-12T21:46:06.089Z,1.65
2022-09-12T21:48:33.258Z,2.50
2022-09-12T21:50:59.913Z,1.85
2022-09-12T21:53:27.199Z,1.95
2022-09-12T21:55:53.802Z,2.30
2022-09-12T21:58:20.337Z,2.28
2022-09-12T22:00:47.744Z,2.28
2022-09-12T22:03:15.370Z,1.80
2022-09-12T22:05:42.617Z,1.60
2022-09-12T22:08:12.016Z,2.10
2022-09-12T22:10:38.736Z,3.05
2022-09-12T22:13:05.649Z,1.85
2022-09-12T22:15:40.876Z,2.05
2022-09-12T22:18:07.865Z,2.75
2022-09-12T22:20:34.304Z,1.80
2022-09-12T22:23:24.414Z,1.80
2022-09-12T22:25:54.307Z,2.17
2022-09-12T22:28:21.229Z,2.50
2022-09-12T22:30:48.498Z,2.22
2022-09-12T22:33:14.992Z,2.78
2022-09-12T22:35:42.350Z,2.05
2022-09-12T22:38:09.144Z,2.53
2022-09-12T22:40:35.626Z,1.95
2022-09-12T22:43:02.273Z,2.35
2022-09-12T22:45:28.741Z,2.05
2022-09-12T22:47:58.100Z,2.15
2022-09-12T22:50:27.682Z,1.73
2022-09-12T22:52:54.183Z,1.65
2022-09-12T22:55:20.839Z,1.85
2022-09-12T22:57:47.326Z,1.77
2022-09-12T23:00:14.848Z,2.33
2022-09-12T23:02:41.353Z,1.63
2022-09-12T23:05:08.165Z,1.88
2022-09-12T23:07:34.612Z,1.88
2022-09-12T23:10:01.181Z,1.67
2022-09-12T23:12:27.750Z,1.63
2022-09-12T23:14:54.309Z,1.75
2022-09-12T23:17:20.762Z,1.50
2022-09-12T23:19:47.344Z,1.88
2022-09-12T23:22:13.841Z,1.80
2022-09-12T23:24:40.366Z,1.85
2022-09-12T23:27:06.997Z,1.63
2022-09-12T23:29:35.262Z,2.13
2022-09-12T23:34:29.196Z,1.70
2022-09-12T23:36:56.258Z,1.80
2022-09-12T23:39:23.398Z,2.35
2022-09-12T23:41:50.354Z,1.95
2022-09-12T23:44:16.909Z,1.73
2022-09-12T23:46:43.504Z,1.95
2022-09-12T23:49:10.128Z,2.08
2022-09-12T23:51:36.758Z,2.17
2022-09-12T23:54:03.354Z,2.50
2022-09-12T23:56:29.833Z,2.30
2022-09-12T23:58:56.348Z,2.67
